createdAt,value
2018-01-21T00:01:06.355Z,1008.59
2018-01-21T00:02:33.422Z,1008.62
2018-01-21T00:04:00.527Z,1008.62
2018-01-21T00:05:27.700Z,1008.64
2018-01-21T00:06:54.795Z,1008.63
2018-01-21T00:08:21.929Z,1008.64
2018-01-21T00:09:49.116Z,1008.63
2018-01-21T00:11:16.341Z,1008.65
2018-01-21T00:12:43.489Z,1008.69
2018-01-21T00:14:10.592Z,1008.69
2018-01-21T00:15:37.631Z,1008.69
2018-01-21T00:17:04.626Z,1008.68
2018-01-21T00:18:31.781Z,1008.70
2018-01-21T00:19:58.978Z,1008.70
2018-01-21T00:21:26.180Z,1008.70
2018-01-21T00:22:53.433Z,1008.73
2018-01-21T00:24:20.505Z,1008.74
2018-01-21T00:25:47.267Z,1008.77
2018-01-21T00:27:14.507Z,1008.77
2018-01-21T00:28:41.560Z,1008.79
2018-01-21T00:30:08.589Z,1008.80
2018-01-21T00:31:35.590Z,1008.82
2018-01-21T00:33:02.640Z,1008.82
2018-01-21T00:34:29.609Z,1008.83
2018-01-21T00:35:56.544Z,1008.85
2018-01-21T00:37:23.544Z,1008.85
2018-01-21T00:38:50.782Z,1008.89
2018-01-21T00:40:17.954Z,1008.93
2018-01-21T00:41:45.106Z,1008.95
2018-01-21T00:43:12.211Z,1008.96
2018-01-21T00:44:38.968Z,1009.00
2018-01-21T00:46:06.035Z,1009.03
2018-01-21T00:47:33.096Z,1009.06
2018-01-21T00:49:00.292Z,1009.02
2018-01-21T00:50:26.928Z,1009.02
2018-01-21T00:51:53.944Z,1009.02
2018-01-21T00:53:21.182Z,1009.04
2018-01-21T00:54:48.379Z,1009.09
2018-01-21T00:56:15.375Z,1009.10
2018-01-21T00:57:42.626Z,1009.12
2018-01-21T00:59:09.732Z,1009.16
2018-01-21T01:00:36.710Z,1009.17
2018-01-21T01:02:03.856Z,1009.20
2018-01-21T01:03:30.984Z,1009.23
2018-01-21T01:04:58.005Z,1009.24
2018-01-21T01:06:25.396Z,1009.27
2018-01-21T01:07:52.356Z,1009.31
2018-01-21T01:09:19.403Z,1009.32
2018-01-21T01:10:46.449Z,1009.33
2018-01-21T01:12:13.631Z,1009.34
2018-01-21T01:13:40.824Z,1009.36
2018-01-21T01:15:07.877Z,1009.37
2018-01-21T01:16:34.923Z,1009.40
2018-01-21T01:18:02.135Z,1009.39
2018-01-21T01:19:29.131Z,1009.39
2018-01-21T01:20:56.359Z,1009.40
2018-01-21T01:22:23.200Z,1009.42
2018-01-21T01:23:50.420Z,1009.43
2018-01-21T01:25:17.502Z,1009.42
2018-01-21T01:26:44.481Z,1009.45
2018-01-21T01:28:11.437Z,1009.47
2018-01-21T01:29:38.720Z,1009.50
2018-01-21T01:31:05.763Z,1009.54
2018-01-21T01:32:32.786Z,1009.56
2018-01-21T01:33:59.807Z,1009.60
2018-01-21T01:35:26.773Z,1009.64
2018-01-21T01:36:53.917Z,1009.65
2018-01-21T01:38:21.129Z,1009.67
2018-01-21T01:39:48.247Z,1009.70
2018-01-21T01:41:15.575Z,1009.74
2018-01-21T01:42:42.432Z,1009.78
2018-01-21T01:44:09.557Z,1009.83
2018-01-21T01:45:36.734Z,1009.85
2018-01-21T01:47:03.959Z,1009.87
2018-01-21T01:48:31.066Z,1009.89
2018-01-21T01:49:58.149Z,1009.91
2018-01-21T01:51:25.269Z,1009.92
2018-01-21T01:52:52.415Z,1009.94
2018-01-21T01:54:19.571Z,1009.94
2018-01-21T01:55:46.520Z,1009.92
2018-01-21T01:57:13.561Z,1009.93
2018-01-21T01:58:40.770Z,1009.95
2018-01-21T02:00:07.992Z,1009.99
2018-01-21T02:01:34.983Z,1009.99
2018-01-21T02:03:02.042Z,1010.03
2018-01-21T02:04:29.110Z,1010.04
2018-01-21T02:05:56.103Z,1010.03
2018-01-21T02:07:23.294Z,1010.07
2018-01-21T02:08:50.406Z,1010.09
2018-01-21T02:10:17.703Z,1010.13
2018-01-21T02:11:44.902Z,1010.19
2018-01-21T02:13:11.867Z,1010.22
2018-01-21T02:14:38.935Z,1010.24
2018-01-21T02:16:06.216Z,1010.26
2018-01-21T02:17:33.257Z,1010.28
2018-01-21T02:19:00.433Z,1010.27
2018-01-21T02:20:27.495Z,1010.28
2018-01-21T02:21:54.617Z,1010.28
2018-01-21T02:23:21.805Z,1010.30
2018-01-21T02:24:48.976Z,1010.33
2018-01-21T02:26:16.152Z,1010.33
2018-01-21T02:27:43.009Z,1010.34
2018-01-21T02:29:10.210Z,1010.34
2018-01-21T02:30:37.280Z,1010.35
2018-01-21T02:32:04.343Z,1010.38
2018-01-21T02:33:31.352Z,1010.37
2018-01-21T02:34:58.295Z,1010.40
2018-01-21T02:36:25.469Z,1010.42
2018-01-21T02:37:52.650Z,1010.44
2018-01-21T02:39:19.791Z,1010.45
2018-01-21T02:40:46.937Z,1010.46
2018-01-21T02:42:14.167Z,1010.49
2018-01-21T02:43:41.170Z,1010.51
2018-01-21T02:45:08.275Z,1010.56
2018-01-21T02:46:35.342Z,1010.59
2018-01-21T02:48:02.396Z,1010.63
2018-01-21T02:49:29.594Z,1010.63
2018-01-21T02:50:56.390Z,1010.65
2018-01-21T02:52:23.507Z,1010.62
2018-01-21T02:53:50.329Z,1010.63
2018-01-21T02:55:17.511Z,1010.68
2018-01-21T02:56:44.543Z,1010.70
2018-01-21T02:58:11.711Z,1010.74
2018-01-21T02:59:38.881Z,1010.75
2018-01-21T03:01:06.005Z,1010.77
2018-01-21T03:02:33.160Z,1010.76
2018-01-21T03:04:00.290Z,1010.75
2018-01-21T03:05:27.095Z,1010.76
2018-01-21T03:06:54.406Z,1010.78
2018-01-21T03:08:21.680Z,1010.74
2018-01-21T03:09:48.711Z,1010.77
2018-01-21T03:11:15.968Z,1010.78
2018-01-21T03:12:42.983Z,1010.79
2018-01-21T03:14:10.092Z,1010.82
2018-01-21T03:15:37.180Z,1010.81
2018-01-21T03:17:04.444Z,1010.83
2018-01-21T03:18:31.717Z,1010.85
2018-01-21T03:19:58.817Z,1010.87
2018-01-21T03:21:25.955Z,1010.90
2018-01-21T03:22:52.860Z,1010.91
2018-01-21T03:24:19.679Z,1010.92
2018-01-21T03:25:46.655Z,1010.93
2018-01-21T03:27:13.972Z,1010.97
2018-01-21T03:28:41.151Z,1011.02
2018-01-21T03:30:08.455Z,1011.03
2018-01-21T03:31:35.688Z,1011.07
2018-01-21T03:33:02.750Z,1011.08
2018-01-21T03:34:29.482Z,1011.10
2018-01-21T03:35:56.795Z,1011.12
2018-01-21T03:37:23.886Z,1011.14
2018-01-21T03:38:51.127Z,1011.16
2018-01-21T03:40:18.267Z,1011.18
2018-01-21T03:41:45.545Z,1011.21
2018-01-21T03:43:12.506Z,1011.23
2018-01-21T03:44:39.368Z,1011.28
2018-01-21T03:46:06.504Z,1011.28
2018-01-21T03:47:33.418Z,1011.27
2018-01-21T03:49:00.532Z,1011.28
2018-01-21T03:50:27.518Z,1011.29
2018-01-21T03:51:54.743Z,1011.31
2018-01-21T03:53:21.877Z,1011.37
2018-01-21T03:54:49.172Z,1011.40
2018-01-21T03:56:16.352Z,1011.48
2018-01-21T03:57:43.448Z,1011.50
2018-01-21T03:59:10.631Z,1011.54
2018-01-21T04:00:37.983Z,1011.56
2018-01-21T04:02:05.162Z,1011.60
2018-01-21T04:03:32.192Z,1011.63
2018-01-21T04:05:00.165Z,1011.66
2018-01-21T04:06:26.138Z,1011.67
2018-01-21T04:07:53.041Z,1011.71
2018-01-21T04:09:20.201Z,1011.71
2018-01-21T04:10:47.119Z,1011.72
2018-01-21T04:12:14.398Z,1011.74
2018-01-21T04:13:41.510Z,1011.78
2018-01-21T04:15:08.767Z,1011.82
2018-01-21T04:16:35.983Z,1011.84
2018-01-21T04:18:02.977Z,1011.87
2018-01-21T04:19:30.018Z,1011.90
2018-01-21T04:20:56.884Z,1011.92
2018-01-21T04:22:23.854Z,1011.95
2018-01-21T04:23:50.990Z,1011.98
2018-01-21T04:25:17.926Z,1012.00
2018-01-21T04:26:44.993Z,1012.01
2018-01-21T04:28:11.991Z,1012.03
2018-01-21T04:29:39.176Z,1012.06
2018-01-21T04:31:14.103Z,1012.08
2018-01-21T04:32:32.923Z,1012.07
2018-01-21T04:33:59.972Z,1012.11
2018-01-21T04:35:26.823Z,1012.12
2018-01-21T04:36:53.734Z,1012.16
2018-01-21T04:38:20.967Z,1012.18
2018-01-21T04:39:48.188Z,1012.19
2018-01-21T04:41:15.582Z,1012.21
2018-01-21T04:42:42.773Z,1012.23
2018-01-21T04:44:09.955Z,1012.22
2018-01-21T04:45:37.040Z,1012.22
2018-01-21T04:47:04.135Z,1012.24
2018-01-21T04:48:31.096Z,1012.25
2018-01-21T04:49:57.943Z,1012.30
2018-01-21T04:51:25.232Z,1012.30
2018-01-21T04:52:52.405Z,1012.30
2018-01-21T04:54:19.580Z,1012.32
2018-01-21T04:55:46.421Z,1012.36
2018-01-21T04:57:13.504Z,1012.35
2018-01-21T04:58:40.737Z,1012.34
2018-01-21T05:00:07.858Z,1012.34
2018-01-21T05:01:34.895Z,1012.34
2018-01-21T05:03:01.944Z,1012.36
2018-01-21T05:04:29.003Z,1012.38
2018-01-21T05:05:56.243Z,1012.41
2018-01-21T05:07:23.261Z,1012.50
2018-01-21T05:08:50.402Z,1012.45
2018-01-21T05:10:17.567Z,1012.47
2018-01-21T05:11:44.555Z,1012.52
2018-01-21T05:13:11.740Z,1012.52
2018-01-21T05:14:38.483Z,1012.57
2018-01-21T05:16:05.680Z,1012.56
2018-01-21T05:17:32.792Z,1012.62
2018-01-21T05:18:59.784Z,1012.56
2018-01-21T05:20:26.642Z,1012.56
2018-01-21T05:21:53.870Z,1012.55
2018-01-21T05:23:20.959Z,1012.57
2018-01-21T05:24:48.145Z,1012.59
2018-01-21T05:26:15.305Z,1012.65
2018-01-21T05:27:42.514Z,1012.65
2018-01-21T05:29:09.501Z,1012.69
2018-01-21T05:30:36.357Z,1012.71
2018-01-21T05:32:03.538Z,1012.73
2018-01-21T05:33:30.428Z,1012.76
2018-01-21T05:34:57.086Z,1012.76
2018-01-21T05:36:24.161Z,1012.80
2018-01-21T05:37:50.833Z,1012.84
2018-01-21T05:39:17.976Z,1012.85
2018-01-21T05:40:45.111Z,1012.88
2018-01-21T05:42:12.156Z,1012.92
2018-01-21T05:43:39.207Z,1012.98
2018-01-21T05:45:06.221Z,1013.02
2018-01-21T05:46:32.873Z,1013.00
2018-01-21T05:47:59.839Z,1012.99
2018-01-21T05:49:26.548Z,1013.05
2018-01-21T05:50:53.720Z,1013.10
2018-01-21T05:52:20.985Z,1013.10
2018-01-21T05:53:48.250Z,1013.08
2018-01-21T05:55:15.201Z,1013.07
2018-01-21T05:56:42.077Z,1013.10
2018-01-21T05:58:09.397Z,1013.18
2018-01-21T05:59:36.403Z,1013.19
2018-01-21T06:01:03.465Z,1013.19
2018-01-21T06:02:30.478Z,1013.20
2018-01-21T06:03:57.340Z,1013.23
2018-01-21T06:05:24.086Z,1013.28
2018-01-21T06:06:50.975Z,1013.27
2018-01-21T06:08:18.035Z,1013.31
2018-01-21T06:09:45.018Z,1013.32
2018-01-21T06:11:11.788Z,1013.39
2018-01-21T06:12:38.842Z,1013.44
2018-01-21T06:14:05.792Z,1013.41
2018-01-21T06:15:32.965Z,1013.47
2018-01-21T06:17:00.004Z,1013.53
2018-01-21T06:18:26.841Z,1013.53
2018-01-21T06:19:54.048Z,1013.56
2018-01-21T06:21:21.162Z,1013.59
2018-01-21T06:22:48.279Z,1013.60
2018-01-21T06:24:15.308Z,1013.64
2018-01-21T06:25:42.354Z,1013.66
2018-01-21T06:27:09.569Z,1013.69
2018-01-21T06:28:36.508Z,1013.71
2018-01-21T06:30:03.619Z,1013.73
2018-01-21T06:31:30.632Z,1013.78
2018-01-21T06:32:57.536Z,1013.81
2018-01-21T06:34:24.629Z,1013.84
2018-01-21T06:35:51.945Z,1013.84
2018-01-21T06:37:19.087Z,1013.83
2018-01-21T06:38:46.353Z,1013.86
2018-01-21T06:40:13.516Z,1013.88
2018-01-21T06:41:40.680Z,1013.92
2018-01-21T06:43:07.481Z,1013.97
2018-01-21T06:44:34.489Z,1013.96
2018-01-21T06:46:01.516Z,1014.02
2018-01-21T06:47:28.471Z,1014.09
2018-01-21T06:48:55.217Z,1014.06
2018-01-21T06:50:22.459Z,1014.12
2018-01-21T06:51:49.623Z,1014.17
2018-01-21T06:53:16.436Z,1014.24
2018-01-21T06:54:43.587Z,1014.27
2018-01-21T06:56:10.681Z,1014.37
2018-01-21T06:57:37.775Z,1014.38
2018-01-21T06:59:04.756Z,1014.43
2018-01-21T07:00:31.639Z,1014.43
2018-01-21T07:01:58.681Z,1014.46
2018-01-21T07:03:25.889Z,1014.46
2018-01-21T07:04:52.966Z,1014.52
2018-01-21T07:06:20.065Z,1014.50
2018-01-21T07:07:46.814Z,1014.51
2018-01-21T07:09:14.007Z,1014.52
2018-01-21T07:10:41.335Z,1014.53
2018-01-21T07:12:08.198Z,1014.56
2018-01-21T07:13:35.304Z,1014.59
2018-01-21T07:15:02.453Z,1014.62
2018-01-21T07:16:29.514Z,1014.68
2018-01-21T07:17:56.691Z,1014.69
2018-01-21T07:19:23.812Z,1014.72
2018-01-21T07:20:50.900Z,1014.76
2018-01-21T07:22:18.017Z,1014.77
2018-01-21T07:23:45.128Z,1014.83
2018-01-21T07:25:11.838Z,1014.81
2018-01-21T07:26:38.936Z,1014.83
2018-01-21T07:28:06.141Z,1014.89
2018-01-21T07:29:33.079Z,1014.87
2018-01-21T07:31:00.071Z,1014.94
2018-01-21T07:32:27.079Z,1014.97
2018-01-21T07:33:54.262Z,1014.98
2018-01-21T07:35:21.354Z,1015.05
2018-01-21T07:36:48.427Z,1015.10
2018-01-21T07:38:15.323Z,1015.12
2018-01-21T07:39:42.357Z,1015.13
2018-01-21T07:41:09.296Z,1015.16
2018-01-21T07:42:36.361Z,1015.22
2018-01-21T07:44:03.025Z,1015.24
2018-01-21T07:45:30.282Z,1015.29
2018-01-21T07:46:57.284Z,1015.32
2018-01-21T07:48:24.380Z,1015.31
2018-01-21T07:49:51.406Z,1015.36
2018-01-21T07:51:18.919Z,1015.36
2018-01-21T07:52:46.024Z,1015.37
2018-01-21T07:54:13.208Z,1015.37
2018-01-21T07:55:40.155Z,1015.37
2018-01-21T07:57:06.870Z,1015.40
2018-01-21T07:58:34.131Z,1015.42
2018-01-21T08:00:01.182Z,1015.43
2018-01-21T08:01:28.217Z,1015.45
2018-01-21T08:02:55.296Z,1015.48
2018-01-21T08:04:22.576Z,1015.55
2018-01-21T08:05:49.790Z,1015.49
2018-01-21T08:07:16.955Z,1015.54
2018-01-21T08:08:43.996Z,1015.56
2018-01-21T08:10:10.839Z,1015.60
2018-01-21T08:11:37.426Z,1015.63
2018-01-21T08:13:04.363Z,1015.65
2018-01-21T08:14:31.556Z,1015.65
2018-01-21T08:15:58.691Z,1015.72
2018-01-21T08:17:25.765Z,1015.78
2018-01-21T08:18:53.062Z,1015.76
2018-01-21T08:20:20.228Z,1015.76
2018-01-21T08:21:47.440Z,1015.76
2018-01-21T08:23:14.475Z,1015.82
2018-01-21T08:24:41.634Z,1015.88
2018-01-21T08:26:08.884Z,1015.88
2018-01-21T08:27:36.117Z,1015.93
2018-01-21T08:29:03.317Z,1015.98
2018-01-21T08:30:30.392Z,1016.03
2018-01-21T08:31:57.255Z,1016.07
2018-01-21T08:33:24.448Z,1016.11
2018-01-21T08:34:51.708Z,1016.13
2018-01-21T08:36:18.733Z,1016.17
2018-01-21T08:37:45.480Z,1016.20
2018-01-21T08:39:12.570Z,1016.24
2018-01-21T08:40:39.513Z,1016.27
2018-01-21T08:42:06.580Z,1016.28
2018-01-21T08:43:34.081Z,1016.27
2018-01-21T08:45:01.101Z,1016.29
2018-01-21T08:46:28.189Z,1016.29
2018-01-21T08:47:55.151Z,1016.35
2018-01-21T08:49:21.968Z,1016.37
2018-01-21T08:50:49.146Z,1016.42
2018-01-21T08:52:16.077Z,1016.44
2018-01-21T08:53:43.101Z,1016.44
2018-01-21T08:55:10.168Z,1016.45
2018-01-21T08:56:37.223Z,1016.48
2018-01-21T08:58:04.432Z,1016.51
2018-01-21T08:59:31.550Z,1016.53
2018-01-21T09:00:58.648Z,1016.53
2018-01-21T09:02:25.694Z,1016.54
2018-01-21T09:03:52.919Z,1016.56
2018-01-21T09:05:19.907Z,1016.59
2018-01-21T09:06:47.039Z,1016.61
2018-01-21T09:08:14.151Z,1016.63
2018-01-21T09:09:41.209Z,1016.64
2018-01-21T09:11:08.385Z,1016.64
2018-01-21T09:12:35.592Z,1016.63
2018-01-21T09:14:02.839Z,1016.64
2018-01-21T09:15:29.860Z,1016.65
2018-01-21T09:16:56.798Z,1016.68
2018-01-21T09:18:23.832Z,1016.71
2018-01-21T09:19:51.024Z,1016.74
2018-01-21T09:21:18.276Z,1016.78
2018-01-21T09:22:45.440Z,1016.82
2018-01-21T09:24:12.780Z,1016.87
2018-01-21T09:25:39.891Z,1016.92
2018-01-21T09:27:06.521Z,1017.01
2018-01-21T09:28:33.590Z,1017.04
2018-01-21T09:30:00.817Z,1017.05
2018-01-21T09:31:27.488Z,1017.08
2018-01-21T09:32:54.664Z,1017.07
2018-01-21T09:34:21.359Z,1017.07
2018-01-21T09:35:48.486Z,1017.04
2018-01-21T09:37:15.778Z,1017.06
2018-01-21T09:38:42.530Z,1017.11
2018-01-21T09:40:09.332Z,1017.14
2018-01-21T09:41:36.488Z,1017.13
2018-01-21T09:43:03.564Z,1017.13
2018-01-21T09:44:30.569Z,1017.14
2018-01-21T09:45:57.556Z,1017.17
2018-01-21T09:47:24.872Z,1017.21
2018-01-21T09:48:51.897Z,1017.25
2018-01-21T09:50:19.051Z,1017.27
2018-01-21T09:51:46.114Z,1017.30
2018-01-21T09:53:13.185Z,1017.32
2018-01-21T09:54:39.960Z,1017.31
2018-01-21T09:56:07.184Z,1017.36
2018-01-21T09:57:34.309Z,1017.43
2018-01-21T09:59:01.263Z,1017.45
2018-01-21T10:00:28.085Z,1017.49
2018-01-21T10:01:55.253Z,1017.50
2018-01-21T10:03:22.388Z,1017.52
2018-01-21T10:04:49.491Z,1017.54
2018-01-21T10:06:16.236Z,1017.55
2018-01-21T10:07:43.407Z,1017.56
2018-01-21T10:09:10.236Z,1017.58
2018-01-21T10:10:37.364Z,1017.55
2018-01-21T10:12:04.522Z,1017.57
2018-01-21T10:13:31.447Z,1017.58
2018-01-21T10:14:58.324Z,1017.59
2018-01-21T10:16:25.060Z,1017.58
2018-01-21T10:17:52.380Z,1017.58
2018-01-21T10:19:19.183Z,1017.59
2018-01-21T10:20:45.940Z,1017.63
2018-01-21T10:22:13.178Z,1017.63
2018-01-21T10:23:40.116Z,1017.66
2018-01-21T10:25:07.183Z,1017.65
2018-01-21T10:26:34.556Z,1017.65
2018-01-21T10:28:01.708Z,1017.65
2018-01-21T10:29:28.442Z,1017.66
2018-01-21T10:30:55.596Z,1017.63
2018-01-21T10:32:22.765Z,1017.66
2018-01-21T10:33:49.716Z,1017.67
2018-01-21T10:35:16.617Z,1017.69
2018-01-21T10:36:43.853Z,1017.73
2018-01-21T10:38:11.031Z,1017.78
2018-01-21T10:39:38.313Z,1017.81
2018-01-21T10:41:05.434Z,1017.82
2018-01-21T10:42:32.542Z,1017.84
2018-01-21T10:43:59.530Z,1017.86
2018-01-21T10:45:26.725Z,1017.90
2018-01-21T10:46:54.084Z,1017.90
2018-01-21T10:48:21.233Z,1017.92
2018-01-21T10:49:48.289Z,1017.94
2018-01-21T10:51:15.536Z,1017.96
2018-01-21T10:52:42.762Z,1017.95
2018-01-21T10:54:09.877Z,1017.94
2018-01-21T10:55:37.102Z,1017.95
2018-01-21T10:57:04.387Z,1017.93
2018-01-21T10:58:31.305Z,1017.94
2018-01-21T10:59:58.139Z,1017.97
2018-01-21T11:01:25.275Z,1017.98
2018-01-21T11:02:52.403Z,1018.00
2018-01-21T11:04:19.442Z,1018.02
2018-01-21T11:05:46.329Z,1018.04
2018-01-21T11:07:13.409Z,1018.07
2018-01-21T11:08:40.443Z,1018.08
2018-01-21T11:10:07.617Z,1018.10
2018-01-21T11:11:34.553Z,1018.13
2018-01-21T11:13:01.610Z,1018.12
2018-01-21T11:14:28.713Z,1018.17
2018-01-21T11:15:55.917Z,1018.16
2018-01-21T11:17:22.953Z,1018.18
2018-01-21T11:18:50.276Z,1018.19
2018-01-21T11:20:17.388Z,1018.21
2018-01-21T11:21:44.524Z,1018.24
2018-01-21T11:23:11.681Z,1018.28
2018-01-21T11:24:38.863Z,1018.28
2018-01-21T11:26:06.266Z,1018.30
2018-01-21T11:27:33.221Z,1018.30
2018-01-21T11:29:00.543Z,1018.30
2018-01-21T11:30:27.670Z,1018.33
2018-01-21T11:31:54.704Z,1018.32
2018-01-21T11:33:21.842Z,1018.35
2018-01-21T11:34:49.016Z,1018.36
2018-01-21T11:36:16.307Z,1018.36
2018-01-21T11:37:43.528Z,1018.37
2018-01-21T11:39:10.641Z,1018.40
2018-01-21T11:40:37.816Z,1018.38
2018-01-21T11:42:05.000Z,1018.38
2018-01-21T11:43:32.119Z,1018.39
2018-01-21T11:44:59.075Z,1018.40
2018-01-21T11:46:26.346Z,1018.41
2018-01-21T11:47:53.588Z,1018.41
2018-01-21T11:49:20.895Z,1018.43
2018-01-21T11:50:48.029Z,1018.42
2018-01-21T11:52:15.292Z,1018.44
2018-01-21T11:53:42.463Z,1018.43
2018-01-21T11:55:09.731Z,1018.45
2018-01-21T11:56:37.065Z,1018.48
2018-01-21T11:58:04.367Z,1018.49
2018-01-21T11:59:31.474Z,1018.49
2018-01-21T12:00:58.507Z,1018.51
2018-01-21T12:02:25.534Z,1018.51
2018-01-21T12:03:52.374Z,1018.52
2018-01-21T12:05:19.817Z,1018.54
2018-01-21T12:06:46.698Z,1018.56
2018-01-21T12:08:13.789Z,1018.59
2018-01-21T12:09:41.049Z,1018.60
2018-01-21T12:11:08.190Z,1018.60
2018-01-21T12:12:35.184Z,1018.62
2018-01-21T12:14:02.447Z,1018.62
2018-01-21T12:15:29.621Z,1018.60
2018-01-21T12:16:56.890Z,1018.61
2018-01-21T12:18:24.113Z,1018.60
2018-01-21T12:19:51.422Z,1018.60
2018-01-21T12:21:18.612Z,1018.62
2018-01-21T12:22:45.863Z,1018.63
2018-01-21T12:24:12.970Z,1018.64
2018-01-21T12:25:40.042Z,1018.63
2018-01-21T12:27:07.182Z,1018.62
2018-01-21T12:28:34.286Z,1018.62
2018-01-21T12:30:01.549Z,1018.64
2018-01-21T12:31:28.746Z,1018.66
2018-01-21T12:32:55.897Z,1018.66
2018-01-21T12:34:23.115Z,1018.68
2018-01-21T12:35:50.128Z,1018.70
2018-01-21T12:37:17.245Z,1018.74
2018-01-21T12:38:44.428Z,1018.75
2018-01-21T12:40:11.420Z,1018.75
2018-01-21T12:41:38.698Z,1018.75
2018-01-21T12:43:05.781Z,1018.79
2018-01-21T12:44:32.864Z,1018.81
2018-01-21T12:46:00.080Z,1018.85
2018-01-21T12:47:26.928Z,1018.88
2018-01-21T12:48:54.223Z,1018.88
2018-01-21T12:50:21.347Z,1018.90
2018-01-21T12:51:48.668Z,1018.91
2018-01-21T12:53:15.752Z,1018.92
2018-01-21T12:54:42.946Z,1018.95
2018-01-21T12:56:10.209Z,1018.99
2018-01-21T12:57:37.457Z,1018.98
2018-01-21T12:59:04.568Z,1019.02
2018-01-21T13:00:31.646Z,1019.02
2018-01-21T13:01:58.648Z,1019.04
2018-01-21T13:03:26.007Z,1019.06
2018-01-21T13:04:53.183Z,1019.07
2018-01-21T13:06:20.463Z,1019.09
2018-01-21T13:07:47.776Z,1019.15
2018-01-21T13:09:14.973Z,1019.22
2018-01-21T13:10:42.208Z,1019.27
2018-01-21T13:12:09.467Z,1019.31
2018-01-21T13:13:36.615Z,1019.34
2018-01-21T13:15:03.934Z,1019.35
2018-01-21T13:16:31.025Z,1019.33
2018-01-21T13:17:58.241Z,1019.32
2018-01-21T13:19:25.634Z,1019.33
2018-01-21T13:20:52.678Z,1019.33
2018-01-21T13:22:19.940Z,1019.33
2018-01-21T13:23:47.147Z,1019.36
2018-01-21T13:25:14.227Z,1019.37
2018-01-21T13:26:41.452Z,1019.38
2018-01-21T13:28:08.527Z,1019.40
2018-01-21T13:29:35.676Z,1019.41
2018-01-21T13:31:02.884Z,1019.39
2018-01-21T13:32:29.916Z,1019.43
2018-01-21T13:33:56.884Z,1019.42
2018-01-21T13:35:23.727Z,1019.47
2018-01-21T13:36:50.834Z,1019.48
2018-01-21T13:38:18.122Z,1019.49
2018-01-21T13:39:45.351Z,1019.50
2018-01-21T13:41:12.541Z,1019.53
2018-01-21T13:42:39.722Z,1019.52
2018-01-21T13:44:07.089Z,1019.53
2018-01-21T13:45:34.074Z,1019.54
2018-01-21T13:47:01.206Z,1019.58
2018-01-21T13:48:28.352Z,1019.58
2018-01-21T13:49:55.426Z,1019.59
2018-01-21T13:51:22.579Z,1019.61
2018-01-21T13:52:49.797Z,1019.61
2018-01-21T13:54:17.058Z,1019.64
2018-01-21T13:55:44.287Z,1019.67
2018-01-21T13:57:11.442Z,1019.67
2018-01-21T13:58:38.528Z,1019.68
2018-01-21T14:00:05.569Z,1019.72
2018-01-21T14:01:32.829Z,1019.75
2018-01-21T14:03:00.037Z,1019.74
2018-01-21T14:04:27.032Z,1019.75
2018-01-21T14:05:54.263Z,1019.76
2018-01-21T14:07:21.787Z,1019.78
2018-01-21T14:08:48.687Z,1019.82
2018-01-21T14:10:15.817Z,1019.82
2018-01-21T14:11:43.072Z,1019.85
2018-01-21T14:13:10.513Z,1019.87
2018-01-21T14:14:37.329Z,1019.89
2018-01-21T14:16:04.490Z,1019.93
2018-01-21T14:17:31.517Z,1019.97
2018-01-21T14:18:58.477Z,1019.98
2018-01-21T14:20:25.663Z,1020.01
2018-01-21T14:21:52.793Z,1020.02
2018-01-21T14:23:20.101Z,1020.04
2018-01-21T14:24:47.346Z,1020.05
2018-01-21T14:26:14.738Z,1020.07
2018-01-21T14:27:41.819Z,1020.05
2018-01-21T14:29:08.822Z,1020.05
2018-01-21T14:30:36.207Z,1020.09
2018-01-21T14:32:03.243Z,1020.11
2018-01-21T14:33:30.235Z,1020.12
2018-01-21T14:34:57.267Z,1020.14
2018-01-21T14:36:24.245Z,1020.18
2018-01-21T14:37:51.485Z,1020.18
2018-01-21T14:39:18.829Z,1020.18
2018-01-21T14:40:46.046Z,1020.22
2018-01-21T14:42:13.184Z,1020.25
2018-01-21T14:43:40.419Z,1020.25
2018-01-21T14:45:07.531Z,1020.25
2018-01-21T14:46:34.719Z,1020.26
2018-01-21T14:48:01.879Z,1020.28
2018-01-21T14:49:29.191Z,1020.29
2018-01-21T14:50:56.195Z,1020.30
2018-01-21T14:52:23.401Z,1020.30
2018-01-21T14:53:50.571Z,1020.32
2018-01-21T14:55:17.879Z,1020.34
2018-01-21T14:56:45.063Z,1020.37
2018-01-21T14:58:12.177Z,1020.39
2018-01-21T14:59:39.397Z,1020.41
2018-01-21T15:01:06.405Z,1020.43
2018-01-21T15:02:33.713Z,1020.43
2018-01-21T15:04:00.826Z,1020.44
2018-01-21T15:05:27.911Z,1020.46
2018-01-21T15:06:55.181Z,1020.47
2018-01-21T15:08:21.876Z,1020.49
2018-01-21T15:09:49.147Z,1020.54
2018-01-21T15:11:16.284Z,1020.52
2018-01-21T15:12:43.286Z,1020.52
2018-01-21T15:14:10.495Z,1020.55
2018-01-21T15:15:37.676Z,1020.60
2018-01-21T15:17:04.793Z,1020.60
2018-01-21T15:18:31.926Z,1020.60
2018-01-21T15:19:59.028Z,1020.64
2018-01-21T15:21:26.046Z,1020.62
2018-01-21T15:22:53.098Z,1020.66
2018-01-21T15:24:20.245Z,1020.68
2018-01-21T15:25:47.383Z,1020.69
2018-01-21T15:27:14.185Z,1020.72
2018-01-21T15:28:41.339Z,1020.74
2018-01-21T15:30:08.574Z,1020.76
2018-01-21T15:31:35.822Z,1020.80
2018-01-21T15:33:03.045Z,1020.79
2018-01-21T15:34:30.175Z,1020.80
2018-01-21T15:35:57.213Z,1020.81
2018-01-21T15:37:24.356Z,1020.81
2018-01-21T15:38:51.556Z,1020.82
2018-01-21T15:40:18.535Z,1020.81
2018-01-21T15:41:45.726Z,1020.82
2018-01-21T15:43:12.889Z,1020.84
2018-01-21T15:44:40.060Z,1020.84
2018-01-21T15:46:07.045Z,1020.86
2018-01-21T15:47:34.130Z,1020.88
2018-01-21T15:49:01.143Z,1020.89
2018-01-21T15:50:28.054Z,1020.92
2018-01-21T15:51:55.118Z,1020.94
2018-01-21T15:53:22.346Z,1020.96
2018-01-21T15:54:49.505Z,1020.97
2018-01-21T15:56:16.769Z,1020.98
2018-01-21T15:57:43.878Z,1021.00
2018-01-21T15:59:11.071Z,1021.01
2018-01-21T16:00:38.266Z,1021.03
2018-01-21T16:02:05.338Z,1021.05
2018-01-21T16:03:32.459Z,1021.06
2018-01-21T16:04:59.472Z,1021.08
2018-01-21T16:06:26.541Z,1021.10
2018-01-21T16:07:53.788Z,1021.13
2018-01-21T16:09:21.041Z,1021.12
2018-01-21T16:10:48.274Z,1021.12
2018-01-21T16:12:15.503Z,1021.12
2018-01-21T16:13:42.445Z,1021.13
2018-01-21T16:15:09.473Z,1021.15
2018-01-21T16:16:36.480Z,1021.17
2018-01-21T16:18:03.618Z,1021.17
2018-01-21T16:19:30.944Z,1021.23
2018-01-21T16:20:58.100Z,1021.24
2018-01-21T16:22:25.316Z,1021.25
2018-01-21T16:23:52.220Z,1021.24
2018-01-21T16:25:19.391Z,1021.23
2018-01-21T16:26:46.678Z,1021.20
2018-01-21T16:28:13.771Z,1021.22
2018-01-21T16:29:40.912Z,1021.23
2018-01-21T16:31:07.996Z,1021.24
2018-01-21T16:32:34.882Z,1021.24
2018-01-21T16:34:02.044Z,1021.22
2018-01-21T16:35:28.843Z,1021.20
2018-01-21T16:36:55.865Z,1021.20
2018-01-21T16:38:23.236Z,1021.20
2018-01-21T16:39:50.357Z,1021.22
2018-01-21T16:41:17.416Z,1021.23
2018-01-21T16:42:43.989Z,1021.23
2018-01-21T16:44:11.202Z,1021.24
2018-01-21T16:45:38.252Z,1021.21
2018-01-21T16:47:05.247Z,1021.25
2018-01-21T16:48:32.486Z,1021.28
2018-01-21T16:49:58.832Z,1021.28
2018-01-21T16:51:26.251Z,1021.27
2018-01-21T16:52:53.513Z,1021.26
2018-01-21T16:54:20.570Z,1021.25
2018-01-21T16:55:47.765Z,1021.27
2018-01-21T16:57:14.982Z,1021.27
2018-01-21T16:58:42.151Z,1021.25
2018-01-21T17:00:09.292Z,1021.23
2018-01-21T17:01:36.401Z,1021.26
2018-01-21T17:03:03.168Z,1021.24
2018-01-21T17:04:30.041Z,1021.25
2018-01-21T17:05:57.012Z,1021.23
2018-01-21T17:07:23.918Z,1021.25
2018-01-21T17:08:51.128Z,1021.27
2018-01-21T17:10:18.267Z,1021.28
2018-01-21T17:11:45.575Z,1021.27
2018-01-21T17:13:12.279Z,1021.25
2018-01-21T17:14:39.402Z,1021.24
2018-01-21T17:16:06.786Z,1021.21
2018-01-21T17:17:33.662Z,1021.18
2018-01-21T17:19:00.849Z,1021.20
2018-01-21T17:20:27.819Z,1021.23
2018-01-21T17:21:55.152Z,1021.19
2018-01-21T17:23:22.203Z,1021.16
2018-01-21T17:24:49.475Z,1021.18
2018-01-21T17:26:16.613Z,1021.16
2018-01-21T17:27:43.797Z,1021.14
2018-01-21T17:29:10.984Z,1021.14
2018-01-21T17:30:38.106Z,1021.12
2018-01-21T17:32:05.288Z,1021.11
2018-01-21T17:33:32.596Z,1021.12